Time;durP1;ratioP1;P1;durP2;ratioP2;P2;SDS_P1;SDS_P2;PMS_P1;PMS_P2;Temp;Humidity;BMP_temperature;BMP_pressure;BME280_temperature;BME280_humidity;BME280_pressure;Samples;Min_cycle;Max_cycle;Signal;HPM_P1;HPM_P2
2021/10/09 00:00:46;;;;;;;36.37;23.97;;;;;;;;;;5075048;28;20412;-47
2021/10/09 00:03:12;;;;;;;34.90;23.23;;;;;;;;;;5074289;28;20423;-47
2021/10/09 00:05:38;;;;;;;35.67;25.03;;;;;;;;;;5074538;28;21058;-47
2021/10/09 00:08:12;;;;;;;40.67;24.63;;;;;;;;;;5074361;28;20435;-47
2021/10/09 00:10:38;;;;;;;39.60;24.67;;;;;;;;;;5073138;28;20770;-47
2021/10/09 00:13:04;;;;;;;29.57;22.63;;;;;;;;;;5074214;28;20428;-47
2021/10/09 00:15:30;;;;;;;37.37;22.00;;;;;;;;;;5074340;28;20440;-47
2021/10/09 00:17:56;;;;;;;33.93;24.00;;;;;;;;;;5074179;28;20424;-47
2021/10/09 00:20:22;;;;;;;35.43;22.30;;;;;;;;;;5074314;28;20925;-47
2021/10/09 00:22:47;;;;;;;39.07;23.27;;;;;;;;;;5074051;28;20900;-47
2021/10/09 00:25:13;;;;;;;38.27;23.20;;;;;;;;;;5074357;28;20955;-47
2021/10/09 00:27:40;;;;;;;32.73;21.97;;;;;;;;;;5073962;28;20573;-47
2021/10/09 00:30:06;;;;;;;38.17;24.53;;;;;;;;;;5074069;28;20487;-47
2021/10/09 00:32:32;;;;;;;33.90;23.43;;;;;;;;;;5073811;28;20404;-47
2021/10/09 00:34:58;;;;;;;38.77;23.13;;;;;;;;;;5074023;28;20434;-47
2021/10/09 00:37:24;;;;;;;34.07;22.30;;;;;;;;;;5074061;28;20412;-47
2021/10/09 00:39:52;;;;;;;35.03;23.20;;;;;;;;;;5073803;28;20478;-47
2021/10/09 00:42:18;;;;;;;36.70;22.63;;;;;;;;;;5073752;28;20411;-47
2021/10/09 00:44:43;;;;;;;33.53;22.20;;;;;;;;;;5073682;28;20413;-48
2021/10/09 00:47:09;;;;;;;37.23;22.30;;;;;;;;;;5073677;28;20455;-47
2021/10/09 00:49:35;;;;;;;32.57;21.97;;;;;;;;;;5073687;28;20495;-47
2021/10/09 00:52:05;;;;;;;36.00;22.30;;;;;;;;;;5073486;28;20396;-47
2021/10/09 00:54:31;;;;;;;32.33;22.70;;;;;;;;;;5073622;28;20408;-47
2021/10/09 00:56:58;;;;;;;34.67;24.07;;;;;;;;;;5073564;28;20858;-47
2021/10/09 00:59:28;;;;;;;38.37;23.33;;;;;;;;;;5073332;28;20420;-47
2021/10/09 01:01:55;;;;;;;42.10;23.87;;;;;;;;;;5072783;28;20873;-47
2021/10/09 01:04:21;;;;;;;33.77;22.80;;;;;;;;;;5073070;28;20431;-48
2021/10/09 01:06:47;;;;;;;35.73;23.97;;;;;;;;;;5072834;28;20491;-47
2021/10/09 01:09:13;;;;;;;37.13;23.00;;;;;;;;;;5072541;28;20424;-47
2021/10/09 01:11:40;;;;;;;34.23;21.90;;;;;;;;;;5073190;28;20452;-47
2021/10/09 01:14:06;;;;;;;38.40;23.73;;;;;;;;;;5073004;28;20403;-47
2021/10/09 01:16:32;;;;;;;35.00;22.90;;;;;;;;;;5073325;28;20955;-48
2021/10/09 01:18:58;;;;;;;35.37;22.60;;;;;;;;;;5073368;28;20519;-47
2021/10/09 01:21:25;;;;;;;36.50;22.30;;;;;;;;;;5072724;28;20400;-47
2021/10/09 01:23:51;;;;;;;50.57;45.93;;;;;;;;;;5072974;28;20492;-48
2021/10/09 01:26:18;;;;;;;39.43;23.80;;;;;;;;;;5072900;28;20536;-47
2021/10/09 01:28:45;;;;;;;32.33;22.67;;;;;;;;;;5072731;28;20943;-47
2021/10/09 01:31:12;;;;;;;45.90;23.40;;;;;;;;;;5073003;28;20397;-47
2021/10/09 01:33:38;;;;;;;45.13;25.37;;;;;;;;;;5072658;28;20458;-47
2021/10/09 01:36:04;;;;;;;35.63;23.57;;;;;;;;;;5072875;28;20403;-48
2021/10/09 01:38:30;;;;;;;38.43;24.50;;;;;;;;;;5072544;28;20508;-47
2021/10/09 01:40:57;;;;;;;36.03;22.30;;;;;;;;;;5072754;28;20476;-48
2021/10/09 01:43:24;;;;;;;39.87;24.50;;;;;;;;;;5072428;28;20403;-47
2021/10/09 01:45:50;;;;;;;38.07;25.00;;;;;;;;;;5072533;28;20479;-47
2021/10/09 01:48:16;;;;;;;42.23;27.17;;;;;;;;;;5072646;28;20840;-47
2021/10/09 01:50:43;;;;;;;40.07;25.67;;;;;;;;;;5072572;28;20397;-47
2021/10/09 01:53:09;;;;;;;43.53;24.50;;;;;;;;;;5072296;28;20453;-48
2021/10/09 01:55:38;;;;;;;36.60;25.00;;;;;;;;;;5072447;28;20790;-47
2021/10/09 01:58:05;;;;;;;39.53;25.53;;;;;;;;;;5072398;28;21056;-47
2021/10/09 02:00:32;;;;;;;44.47;27.70;;;;;;;;;;5072528;28;20487;-47
2021/10/09 02:03:04;;;;;;;42.10;24.80;;;;;;;;;;5072125;28;20411;-47
2021/10/09 02:05:30;;;;;;;44.50;25.37;;;;;;;;;;5072232;28;20399;-47
2021/10/09 02:07:56;;;;;;;42.73;26.13;;;;;;;;;;5072130;28;20561;-47
2021/10/09 02:10:22;;;;;;;36.53;24.93;;;;;;;;;;5072146;28;20487;-47
2021/10/09 02:12:49;;;;;;;44.63;27.10;;;;;;;;;;5071935;28;20396;-47
2021/10/09 02:25:51;;;;;;;45.37;27.70;;;;;;;;;;5071970;28;20458;-47
2021/10/09 02:28:21;;;;;;;44.80;27.13;;;;;;;;;;5071809;28;20414;-47
2021/10/09 02:30:48;;;;;;;48.90;30.20;;;;;;;;;;5071911;28;20487;-47
2021/10/09 02:33:14;;;;;;;49.23;26.87;;;;;;;;;;5070833;28;20951;-48
2021/10/09 02:35:41;;;;;;;44.20;26.83;;;;;;;;;;5071912;28;20464;-47
2021/10/09 02:38:08;;;;;;;46.33;27.40;;;;;;;;;;5071539;28;20788;-47
2021/10/09 02:40:35;;;;;;;48.90;27.83;;;;;;;;;;5072116;28;20742;-48
2021/10/09 02:43:01;;;;;;;46.17;25.90;;;;;;;;;;5071568;28;20439;-47
2021/10/09 02:45:27;;;;;;;46.57;27.50;;;;;;;;;;5071745;28;20404;-47
2021/10/09 02:47:56;;;;;;;49.90;29.30;;;;;;;;;;5071495;28;20428;-47
2021/10/09 02:50:22;;;;;;;46.73;27.27;;;;;;;;;;5071778;28;20392;-48
2021/10/09 02:52:48;;;;;;;52.73;30.67;;;;;;;;;;5071522;28;20767;-47
2021/10/09 02:55:18;;;;;;;51.30;27.90;;;;;;;;;;5071851;28;20454;-47
2021/10/09 02:57:44;;;;;;;46.70;28.20;;;;;;;;;;5071973;28;20400;-47
2021/10/09 03:00:10;;;;;;;54.33;29.03;;;;;;;;;;5071646;28;20772;-46
2021/10/09 03:02:36;;;;;;;45.37;28.40;;;;;;;;;;5071478;28;20403;-47
2021/10/09 03:05:03;;;;;;;40.73;25.47;;;;;;;;;;5071657;28;20844;-47
2021/10/09 03:07:29;;;;;;;44.53;27.03;;;;;;;;;;5071414;28;20456;-47
2021/10/09 03:09:55;;;;;;;51.60;27.70;;;;;;;;;;5071557;28;20400;-47
2021/10/09 03:12:21;;;;;;;42.23;24.70;;;;;;;;;;5071286;28;20398;-47
2021/10/09 03:14:47;;;;;;;46.77;27.03;;;;;;;;;;5071433;28;20402;-47
2021/10/09 03:17:13;;;;;;;42.77;27.23;;;;;;;;;;5071503;28;20890;-47
2021/10/09 03:19:39;;;;;;;45.40;27.20;;;;;;;;;;5071332;28;20820;-47
2021/10/09 03:22:06;;;;;;;45.33;28.03;;;;;;;;;;5071290;28;20405;-47
2021/10/09 03:24:32;;;;;;;51.60;27.47;;;;;;;;;;5071644;28;20774;-47
2021/10/09 03:26:58;;;;;;;47.87;28.10;;;;;;;;;;5071236;28;20449;-47
2021/10/09 03:29:25;;;;;;;44.60;26.60;;;;;;;;;;5071274;28;20538;-47
2021/10/09 03:31:51;;;;;;;49.30;29.10;;;;;;;;;;5071146;28;20481;-48
2021/10/09 03:34:17;;;;;;;48.33;27.40;;;;;;;;;;5071324;28;20408;-47
2021/10/09 03:36:43;;;;;;;48.23;29.43;;;;;;;;;;5071361;28;20451;-47
2021/10/09 03:39:12;;;;;;;49.00;28.70;;;;;;;;;;5071094;28;20450;-47
2021/10/09 03:41:42;;;;;;;51.30;29.83;;;;;;;;;;5071207;28;20480;-46
2021/10/09 03:44:08;;;;;;;50.57;28.07;;;;;;;;;;5071540;28;20407;-47
2021/10/09 03:46:42;;;;;;;49.17;28.03;;;;;;;;;;5074799;28;20458;-47
2021/10/09 03:54:18;;;;;;;57.47;28.30;;;;;;;;;;5074782;28;20413;-47
2021/10/09 03:56:44;;;;;;;51.43;27.97;;;;;;;;;;5074607;28;20402;-48
2021/10/09 03:59:10;;;;;;;44.80;26.60;;;;;;;;;;5074681;28;20448;-48
2021/10/09 04:01:36;;;;;;;50.87;29.73;;;;;;;;;;5074643;28;20922;-48
2021/10/09 04:04:02;;;;;;;48.87;28.00;;;;;;;;;;5074451;28;20460;-47
2021/10/09 04:06:28;;;;;;;48.83;26.23;;;;;;;;;;5074871;28;20453;-47
2021/10/09 04:08:55;;;;;;;51.63;32.97;;;;;;;;;;5074417;28;20422;-48
2021/10/09 04:11:21;;;;;;;48.73;27.57;;;;;;;;;;5074459;28;20398;-47
2021/10/09 04:13:47;;;;;;;45.53;26.53;;;;;;;;;;5074225;28;20397;-47
2021/10/09 04:16:13;;;;;;;47.43;27.27;;;;;;;;;;5074410;28;20836;-47
2021/10/09 04:18:39;;;;;;;55.67;29.27;;;;;;;;;;5074252;28;20441;-46
2021/10/09 04:21:05;;;;;;;54.97;30.83;;;;;;;;;;5073052;28;20797;-47
2021/10/09 04:23:31;;;;;;;42.40;26.00;;;;;;;;;;5074108;28;20494;-47
2021/10/09 04:25:57;;;;;;;47.83;27.43;;;;;;;;;;5074155;28;20453;-47
2021/10/09 04:28:23;;;;;;;44.20;25.07;;;;;;;;;;5074075;28;20995;-47
2021/10/09 04:30:49;;;;;;;50.87;28.27;;;;;;;;;;5074169;28;20449;-47
2021/10/09 04:33:15;;;;;;;47.40;28.27;;;;;;;;;;5073903;28;20402;-47
2021/10/09 04:35:42;;;;;;;47.27;27.90;;;;;;;;;;5074072;28;20398;-47
2021/10/09 04:38:08;;;;;;;55.37;27.37;;;;;;;;;;5073646;28;20959;-47
2021/10/09 04:40:35;;;;;;;57.80;30.17;;;;;;;;;;5073923;28;20394;-47
2021/10/09 04:43:01;;;;;;;49.73;29.67;;;;;;;;;;5073678;28;20402;-47
2021/10/09 04:45:27;;;;;;;54.17;28.57;;;;;;;;;;5073802;28;20947;-47
2021/10/09 04:47:53;;;;;;;49.97;27.97;;;;;;;;;;5073690;28;20464;-46
2021/10/09 04:50:19;;;;;;;46.90;29.00;;;;;;;;;;5073778;28;20806;-46
2021/10/09 04:52:45;;;;;;;50.93;27.60;;;;;;;;;;5073447;28;20896;-49
2021/10/09 04:55:10;;;;;;;57.13;29.00;;;;;;;;;;5073804;28;20416;-48
2021/10/09 04:57:36;;;;;;;59.63;30.30;;;;;;;;;;5072765;28;20421;-48
2021/10/09 05:00:03;;;;;;;57.73;29.80;;;;;;;;;;5073617;28;20449;-48
2021/10/09 05:02:29;;;;;;;59.90;29.57;;;;;;;;;;5073397;28;20398;-47
2021/10/09 05:04:55;;;;;;;46.43;27.30;;;;;;;;;;5073499;28;20405;-47
2021/10/09 05:07:21;;;;;;;52.57;30.63;;;;;;;;;;5073205;28;20666;-47
2021/10/09 05:09:49;;;;;;;49.97;29.20;;;;;;;;;;5073274;28;20422;-47
2021/10/09 05:12:15;;;;;;;47.50;27.60;;;;;;;;;;5073098;28;20393;-48
2021/10/09 05:14:43;;;;;;;51.77;27.90;;;;;;;;;;5073331;28;20941;-47
2021/10/09 05:17:10;;;;;;;54.60;27.90;;;;;;;;;;5073159;28;20402;-48
2021/10/09 05:19:36;;;;;;;48.60;28.57;;;;;;;;;;5073133;28;20422;-47
2021/10/09 05:22:02;;;;;;;50.43;27.93;;;;;;;;;;5072835;28;20422;-48
2021/10/09 05:24:28;;;;;;;56.80;29.70;;;;;;;;;;5073019;28;20492;-47
2021/10/09 05:26:54;;;;;;;47.83;27.47;;;;;;;;;;5072925;28;20598;-49
2021/10/09 05:29:20;;;;;;;49.40;29.27;;;;;;;;;;5072934;28;20422;-47
2021/10/09 05:31:48;;;;;;;51.53;29.20;;;;;;;;;;5072765;28;20416;-47
2021/10/09 05:34:15;;;;;;;51.23;27.63;;;;;;;;;;5072899;28;20404;-47
2021/10/09 05:36:41;;;;;;;43.40;27.97;;;;;;;;;;5072735;28;20401;-47
2021/10/09 05:39:07;;;;;;;56.13;28.47;;;;;;;;;;5073345;28;20452;-47
2021/10/09 05:41:33;;;;;;;46.00;28.30;;;;;;;;;;5072843;28;20406;-47
2021/10/09 05:43:59;;;;;;;46.10;28.47;;;;;;;;;;5072488;28;20937;-47
2021/10/09 05:46:25;;;;;;;53.97;28.97;;;;;;;;;;5072557;28;20449;-47
2021/10/09 05:48:52;;;;;;;49.30;28.90;;;;;;;;;;5072447;28;20414;-47
2021/10/09 05:51:25;;;;;;;51.87;28.33;;;;;;;;;;5072639;28;20166;-47
2021/10/09 06:45:16;;;;;;;43.57;25.90;;;;;;;;;;5071880;28;20405;-47
2021/10/09 06:47:48;;;;;;;43.77;25.83;;;;;;;;;;5071535;28;20462;-47
2021/10/09 07:01:04;;;;;;;40.20;24.27;;;;;;;;;;5071367;28;20444;-47
2021/10/09 07:03:30;;;;;;;38.60;24.00;;;;;;;;;;5070715;28;20477;-47
2021/10/09 07:05:56;;;;;;;42.30;25.30;;;;;;;;;;5071409;28;20454;-47
2021/10/09 07:08:22;;;;;;;39.87;25.10;;;;;;;;;;5071344;28;20420;-47
2021/10/09 07:10:49;;;;;;;39.53;23.93;;;;;;;;;;5071507;28;20411;-47
2021/10/09 07:13:15;;;;;;;41.70;24.50;;;;;;;;;;5071151;28;20403;-47
2021/10/09 07:15:41;;;;;;;50.63;25.70;;;;;;;;;;5071549;28;20407;-47
2021/10/09 07:18:12;;;;;;;36.77;24.03;;;;;;;;;;5071378;28;20765;-47
2021/10/09 07:20:39;;;;;;;44.80;24.67;;;;;;;;;;5074432;28;20391;-47
2021/10/09 07:23:06;;;;;;;39.97;24.17;;;;;;;;;;5075453;28;20410;-47
2021/10/09 07:25:32;;;;;;;36.50;22.27;;;;;;;;;;5075406;28;20894;-47
2021/10/09 07:27:58;;;;;;;37.57;23.93;;;;;;;;;;5075241;28;20439;-47
2021/10/09 07:30:24;;;;;;;37.23;22.30;;;;;;;;;;5075924;28;20393;-47
2021/10/09 07:32:50;;;;;;;37.43;23.37;;;;;;;;;;5075065;28;20404;-47
2021/10/09 07:35:16;;;;;;;37.70;22.60;;;;;;;;;;5075054;28;20396;-47
2021/10/09 07:37:43;;;;;;;40.70;23.60;;;;;;;;;;5074867;28;20774;-48
2021/10/09 07:40:09;;;;;;;35.83;22.50;;;;;;;;;;5075141;28;20405;-48
2021/10/09 07:42:35;;;;;;;37.10;23.10;;;;;;;;;;5074740;28;20397;-47
2021/10/09 07:45:01;;;;;;;36.87;23.10;;;;;;;;;;5075092;28;20534;-47
2021/10/09 07:47:27;;;;;;;37.23;23.83;;;;;;;;;;5074828;28;20962;-48
2021/10/09 07:49:53;;;;;;;48.43;25.40;;;;;;;;;;5073590;28;20404;-48
2021/10/09 07:52:19;;;;;;;40.00;26.47;;;;;;;;;;5066110;28;20471;-47
2021/10/09 07:54:45;;;;;;;43.60;25.07;;;;;;;;;;5054709;28;20774;-47
2021/10/09 07:57:11;;;;;;;39.57;24.10;;;;;;;;;;5055124;28;20417;-47
2021/10/09 07:59:37;;;;;;;41.63;25.50;;;;;;;;;;5054640;28;20428;-47
2021/10/09 08:02:05;;;;;;;38.97;23.77;;;;;;;;;;5054433;28;20477;-47
2021/10/09 08:04:31;;;;;;;41.87;25.53;;;;;;;;;;5054459;28;20405;-47
2021/10/09 08:06:57;;;;;;;34.50;23.10;;;;;;;;;;5054397;28;20525;-48
2021/10/09 08:09:26;;;;;;;36.23;24.93;;;;;;;;;;5054386;28;20425;-47
2021/10/09 08:11:52;;;;;;;35.00;22.20;;;;;;;;;;5054290;28;20409;-47
2021/10/09 08:14:18;;;;;;;31.33;22.43;;;;;;;;;;5054440;28;20405;-47
2021/10/09 08:16:44;;;;;;;30.03;21.93;;;;;;;;;;5054338;28;20402;-47
2021/10/09 08:19:10;;;;;;;29.47;20.50;;;;;;;;;;5054067;28;20450;-47
2021/10/09 08:21:41;;;;;;;33.70;21.90;;;;;;;;;;5054315;28;20572;-48
2021/10/09 08:24:24;;;;;;;30.87;22.10;;;;;;;;;;5054173;28;20406;-48
2021/10/09 08:40:16;;;;;;;36.63;23.03;;;;;;;;;;5074283;28;20817;-47
2021/10/09 08:42:42;;;;;;;34.27;23.90;;;;;;;;;;5073637;28;20406;-47
2021/10/09 08:45:09;;;;;;;33.90;23.53;;;;;;;;;;5073881;28;20888;-47
2021/10/09 08:47:37;;;;;;;44.30;24.40;;;;;;;;;;5073661;28;20855;-47
2021/10/09 08:50:04;;;;;;;40.47;24.47;;;;;;;;;;5073708;28;20745;-47
2021/10/09 08:52:31;;;;;;;32.67;23.33;;;;;;;;;;5073419;28;20449;-47
2021/10/09 08:54:58;;;;;;;29.40;20.73;;;;;;;;;;5074098;28;20394;-48
2021/10/09 08:57:26;;;;;;;29.13;20.30;;;;;;;;;;5073558;28;20401;-50
2021/10/09 09:00:07;;;;;;;26.87;19.00;;;;;;;;;;5073530;28;20921;-48
2021/10/09 09:02:41;;;;;;;26.20;18.07;;;;;;;;;;5073329;28;20851;-48
2021/10/09 09:39:40;;;;;;;18.93;14.87;;;;;;;;;;5072480;28;20495;-49
2021/10/09 09:42:07;;;;;;;19.13;14.30;;;;;;;;;;5072274;28;20754;-48
2021/10/09 09:44:34;;;;;;;19.50;14.17;;;;;;;;;;5072501;28;20460;-48
2021/10/09 09:47:09;;;;;;;18.60;14.47;;;;;;;;;;5072432;28;20449;-48
2021/10/09 09:49:36;;;;;;;18.50;16.10;;;;;;;;;;5072467;28;20419;-48
2021/10/09 09:52:02;;;;;;;23.07;15.37;;;;;;;;;;5072371;28;20406;-49
2021/10/09 09:54:29;;;;;;;25.13;16.20;;;;;;;;;;5072467;28;20401;-49
2021/10/09 09:56:59;;;;;;;21.80;15.13;;;;;;;;;;5072387;28;20405;-49
2021/10/09 09:59:28;;;;;;;19.93;16.70;;;;;;;;;;5072339;28;20794;-49
2021/10/09 10:01:55;;;;;;;17.70;14.47;;;;;;;;;;5071061;28;20455;-49
2021/10/09 10:04:21;;;;;;;19.47;16.07;;;;;;;;;;5072384;28;20414;-49
2021/10/09 10:06:47;;;;;;;20.53;16.37;;;;;;;;;;5072258;28;20459;-49
2021/10/09 10:09:13;;;;;;;18.90;15.20;;;;;;;;;;5072617;28;20447;-49
2021/10/09 10:11:39;;;;;;;18.53;13.90;;;;;;;;;;5072060;28;20395;-49
2021/10/09 10:14:05;;;;;;;17.63;13.73;;;;;;;;;;5072062;28;20398;-49
2021/10/09 10:16:31;;;;;;;21.30;15.90;;;;;;;;;;5072017;28;20401;-49
2021/10/09 10:18:58;;;;;;;22.67;15.90;;;;;;;;;;5072180;28;20428;-49
2021/10/09 10:21:30;;;;;;;211.63;77.83;;;;;;;;;;5072068;28;20399;-49
2021/10/09 10:23:56;;;;;;;11.57;10.43;;;;;;;;;;5071891;28;20437;-49
2021/10/09 10:26:22;;;;;;;11.73;6.30;;;;;;;;;;5071841;28;20456;-49
2021/10/09 10:29:08;;;;;;;9.13;6.40;;;;;;;;;;5071922;28;20514;-49
2021/10/09 10:31:34;;;;;;;11.60;5.80;;;;;;;;;;5071886;28;20400;-49
2021/10/09 10:34:19;;;;;;;11.80;7.07;;;;;;;;;;5071799;28;20876;-49
2021/10/09 10:36:45;;;;;;;15.17;13.57;;;;;;;;;;5071779;28;20879;-49
2021/10/09 10:39:12;;;;;;;16.17;12.90;;;;;;;;;;5072055;28;20806;-49
2021/10/09 10:41:41;;;;;;;19.40;14.80;;;;;;;;;;5071785;28;20403;-48
2021/10/09 10:44:09;;;;;;;17.57;13.00;;;;;;;;;;5071741;28;20392;-49
2021/10/09 10:49:14;;;;;;;18.33;12.97;;;;;;;;;;5071606;28;20423;-49
2021/10/09 10:57:03;;;;;;;20.77;13.67;;;;;;;;;;5071768;28;20929;-50
2021/10/09 10:59:32;;;;;;;17.00;13.00;;;;;;;;;;5071504;28;20925;-49
2021/10/09 11:05:02;;;;;;;18.70;13.53;;;;;;;;;;5056227;28;20769;-48
2021/10/09 11:07:32;;;;;;;17.93;13.83;;;;;;;;;;5058009;28;20463;-49
2021/10/09 11:10:08;;;;;;;16.53;13.27;;;;;;;;;;5071844;28;20401;-49
2021/10/09 11:12:35;;;;;;;19.03;13.27;;;;;;;;;;5071304;28;20400;-48
2021/10/09 11:15:01;;;;;;;17.20;12.70;;;;;;;;;;5071533;28;20396;-49
2021/10/09 11:17:31;;;;;;;17.17;13.57;;;;;;;;;;5071409;28;20876;-49
2021/10/09 11:19:57;;;;;;;14.33;12.00;;;;;;;;;;5071449;28;20181;-49
2021/10/09 11:22:23;;;;;;;17.47;13.13;;;;;;;;;;5071205;28;20408;-49
2021/10/09 11:24:52;;;;;;;16.03;12.50;;;;;;;;;;5071471;28;20487;-49
2021/10/09 11:27:19;;;;;;;20.10;13.40;;;;;;;;;;5071185;28;20894;-49
2021/10/09 11:30:03;;;;;;;15.20;12.40;;;;;;;;;;5071261;28;20460;-49
2021/10/09 11:32:31;;;;;;;19.20;12.27;;;;;;;;;;5070833;28;20484;-48
2021/10/09 11:34:57;;;;;;;15.30;11.50;;;;;;;;;;5071689;28;20872;-49
2021/10/09 11:37:23;;;;;;;16.30;13.57;;;;;;;;;;5071156;28;20425;-49
2021/10/09 11:39:51;;;;;;;14.77;11.27;;;;;;;;;;5071481;28;20444;-47
2021/10/09 11:42:21;;;;;;;18.10;12.17;;;;;;;;;;5079488;28;20477;-47
2021/10/09 11:45:02;;;;;;;16.50;12.80;;;;;;;;;;5080225;28;20494;-47
2021/10/09 11:53:33;;;;;;;13.60;12.13;;;;;;;;;;5072302;28;20477;-49
2021/10/09 11:53:37;;;;;;;17.33;12.90;;;;;;;;;;5070882;28;20391;-50
2021/10/09 11:56:08;;;;;;;14.70;11.87;;;;;;;;;;5071206;28;20450;-48
2021/10/09 11:58:45;;;;;;;14.10;11.80;;;;;;;;;;5071245;28;20432;-47
2021/10/09 12:01:32;;;;;;;14.67;12.63;;;;;;;;;;5071131;28;20408;-47
2021/10/09 12:04:12;;;;;;;15.70;11.50;;;;;;;;;;5070831;28;20423;-47
2021/10/09 12:06:48;;;;;;;14.73;11.57;;;;;;;;;;5073566;28;20487;-48
2021/10/09 12:09:16;;;;;;;15.03;11.97;;;;;;;;;;5090253;28;20426;-47
2021/10/09 12:11:42;;;;;;;14.50;11.97;;;;;;;;;;5094529;28;20399;-47
2021/10/09 12:14:09;;;;;;;16.87;11.83;;;;;;;;;;5094478;28;20829;-47
2021/10/09 12:16:38;;;;;;;17.43;12.20;;;;;;;;;;5094629;28;20474;-47
2021/10/09 12:19:06;;;;;;;14.10;11.20;;;;;;;;;;5094603;28;20430;-47
2021/10/09 12:21:33;;;;;;;12.77;11.30;;;;;;;;;;5091485;28;20404;-47
2021/10/09 12:24:00;;;;;;;12.57;9.63;;;;;;;;;;5092598;28;20482;-47
2021/10/09 12:26:27;;;;;;;12.80;10.70;;;;;;;;;;5078451;28;20505;-48
2021/10/09 12:29:22;;;;;;;15.87;10.73;;;;;;;;;;5088671;28;20465;-50
2021/10/09 12:31:48;;;;;;;15.97;11.27;;;;;;;;;;5088204;28;20569;-47
2021/10/09 12:34:26;;;;;;;16.87;10.23;;;;;;;;;;5072698;28;20904;-47
2021/10/09 12:37:09;;;;;;;14.63;9.93;;;;;;;;;;5073490;28;20404;-47
2021/10/09 12:39:35;;;;;;;11.33;9.30;;;;;;;;;;5073701;28;20440;-47
2021/10/09 12:42:01;;;;;;;15.70;10.70;;;;;;;;;;5073753;28;20407;-47
2021/10/09 12:44:27;;;;;;;13.83;8.90;;;;;;;;;;5075581;28;20404;-47
2021/10/09 12:46:53;;;;;;;14.60;9.13;;;;;;;;;;5080021;28;20479;-47
2021/10/09 12:49:19;;;;;;;13.43;9.37;;;;;;;;;;5079108;28;20499;-47
2021/10/09 12:51:45;;;;;;;17.30;10.10;;;;;;;;;;5078450;28;20440;-48
2021/10/09 12:54:15;;;;;;;11.93;10.10;;;;;;;;;;5073680;28;20393;-47
2021/10/09 12:56:42;;;;;;;18.50;9.47;;;;;;;;;;5073780;28;20412;-47
2021/10/09 12:59:08;;;;;;;12.20;10.23;;;;;;;;;;5073492;28;20801;-47
2021/10/09 13:01:34;;;;;;;14.73;10.57;;;;;;;;;;5073480;28;20400;-47
2021/10/09 13:03:59;;;;;;;21.73;10.30;;;;;;;;;;5073805;28;20761;-48
2021/10/09 13:06:25;;;;;;;14.33;10.53;;;;;;;;;;5073272;28;20454;-47
2021/10/09 13:08:51;;;;;;;13.53;9.03;;;;;;;;;;5073310;28;20980;-48
2021/10/09 13:11:26;;;;;;;10.50;9.30;;;;;;;;;;5073390;28;20393;-50
2021/10/09 13:13:53;;;;;;;17.97;10.93;;;;;;;;;;5073113;28;20392;-47
2021/10/09 13:16:19;;;;;;;13.20;9.67;;;;;;;;;;5073209;28;20530;-47
2021/10/09 13:18:45;;;;;;;11.30;10.20;;;;;;;;;;5072399;28;20431;-47
2021/10/09 13:21:12;;;;;;;13.07;9.73;;;;;;;;;;5073243;28;20404;-47
2021/10/09 13:23:38;;;;;;;10.07;9.07;;;;;;;;;;5072957;28;20400;-47
2021/10/09 13:26:04;;;;;;;17.37;9.83;;;;;;;;;;5073055;28;20444;-47
2021/10/09 13:28:31;;;;;;;16.10;10.10;;;;;;;;;;5072859;28;20469;-50
2021/10/09 13:30:57;;;;;;;13.17;9.73;;;;;;;;;;5072926;28;20393;-47
2021/10/09 13:33:23;;;;;;;16.67;9.03;;;;;;;;;;5072618;28;20411;-47
2021/10/09 13:35:49;;;;;;;17.10;10.20;;;;;;;;;;5072880;28;20808;-48
2021/10/09 13:38:16;;;;;;;15.93;10.50;;;;;;;;;;5072570;28;20454;-50
2021/10/09 13:40:42;;;;;;;12.93;9.80;;;;;;;;;;5073304;28;20397;-49
2021/10/09 13:43:12;;;;;;;12.13;9.27;;;;;;;;;;5072586;28;20400;-49
2021/10/09 13:45:47;;;;;;;13.77;10.47;;;;;;;;;;5072602;28;20427;-50
2021/10/09 13:48:13;;;;;;;11.60;9.40;;;;;;;;;;5072473;28;20509;-49
2021/10/09 13:50:51;;;;;;;13.73;9.70;;;;;;;;;;5072613;28;20408;-49
2021/10/09 13:53:17;;;;;;;18.23;9.20;;;;;;;;;;5072185;28;20509;-50
2021/10/09 13:55:43;;;;;;;11.30;8.17;;;;;;;;;;5077421;28;20408;-50
2021/10/09 13:58:13;;;;;;;13.30;8.83;;;;;;;;;;5089878;28;20438;-49
2021/10/09 14:00:40;;;;;;;12.20;8.10;;;;;;;;;;5089392;28;20894;-49
2021/10/09 14:03:07;;;;;;;15.13;10.07;;;;;;;;;;5092481;28;20894;-50
2021/10/09 14:05:33;;;;;;;13.77;8.47;;;;;;;;;;5092540;28;20411;-50
2021/10/09 14:08:00;;;;;;;8.63;6.50;;;;;;;;;;5081593;28;20463;-49
2021/10/09 14:10:26;;;;;;;14.03;8.57;;;;;;;;;;5072101;28;20407;-49
2021/10/09 14:12:52;;;;;;;13.63;10.30;;;;;;;;;;5072064;28;20405;-49
2021/10/09 14:15:19;;;;;;;11.83;8.83;;;;;;;;;;5072259;28;20475;-49
2021/10/09 14:17:45;;;;;;;13.93;8.50;;;;;;;;;;5072094;28;20496;-49
2021/10/09 14:20:11;;;;;;;18.60;9.90;;;;;;;;;;5072194;28;20440;-49
2021/10/09 14:22:37;;;;;;;12.70;8.87;;;;;;;;;;5071941;28;20401;-49
2021/10/09 14:25:04;;;;;;;14.20;10.13;;;;;;;;;;5072116;28;20409;-49
2021/10/09 14:27:30;;;;;;;10.27;8.47;;;;;;;;;;5070623;28;20460;-49
2021/10/09 14:29:57;;;;;;;24.23;10.40;;;;;;;;;;5071119;28;20450;-49
2021/10/09 14:32:23;;;;;;;12.70;8.77;;;;;;;;;;5071737;28;20400;-49
2021/10/09 14:34:49;;;;;;;14.57;9.20;;;;;;;;;;5071958;28;20521;-49
2021/10/09 14:37:15;;;;;;;13.57;8.97;;;;;;;;;;5071856;28;20419;-50
2021/10/09 14:39:43;;;;;;;11.33;9.87;;;;;;;;;;5071765;28;21123;-50
2021/10/09 14:42:09;;;;;;;15.53;9.47;;;;;;;;;;5071607;28;20403;-51
2021/10/09 14:44:35;;;;;;;17.53;9.40;;;;;;;;;;5071792;28;20409;-49
2021/10/09 14:49:40;;;;;;;9.30;8.37;;;;;;;;;;5071947;28;20458;-49
2021/10/09 15:01:28;;;;;;;14.37;9.37;;;;;;;;;;5071968;28;20907;-49
2021/10/09 15:19:49;;;;;;;16.13;9.70;;;;;;;;;;5071358;28;20936;-48
2021/10/09 15:22:15;;;;;;;14.80;9.60;;;;;;;;;;5071178;28;20770;-48
2021/10/09 15:24:41;;;;;;;17.00;9.30;;;;;;;;;;5071471;28;20421;-48
2021/10/09 15:27:07;;;;;;;14.13;9.10;;;;;;;;;;5071271;28;20455;-48
2021/10/09 15:29:33;;;;;;;14.83;10.13;;;;;;;;;;5071388;28;20927;-48
2021/10/09 15:31:59;;;;;;;13.00;9.00;;;;;;;;;;5071080;28;20407;-48
2021/10/09 15:34:25;;;;;;;14.93;10.43;;;;;;;;;;5071397;28;20405;-48
2021/10/09 15:36:51;;;;;;;14.53;9.70;;;;;;;;;;5071492;28;20447;-48
2021/10/09 15:39:17;;;;;;;18.23;9.17;;;;;;;;;;5071136;28;20442;-48
2021/10/09 15:41:43;;;;;;;12.50;9.50;;;;;;;;;;5074550;28;20409;-48
2021/10/09 15:44:09;;;;;;;13.30;10.20;;;;;;;;;;5075020;28;20401;-48
2021/10/09 15:46:37;;;;;;;15.10;9.73;;;;;;;;;;5074824;28;20454;-48
2021/10/09 15:49:04;;;;;;;10.70;8.67;;;;;;;;;;5074858;28;20389;-48
2021/10/09 15:51:30;;;;;;;17.97;9.60;;;;;;;;;;5074895;28;20880;-48
2021/10/09 15:53:56;;;;;;;12.57;9.53;;;;;;;;;;5074704;28;20387;-48
2021/10/09 15:56:22;;;;;;;13.47;9.27;;;;;;;;;;5074800;28;20405;-48
2021/10/09 15:58:48;;;;;;;11.50;9.80;;;;;;;;;;5074727;28;20507;-48
2021/10/09 16:01:14;;;;;;;15.63;9.70;;;;;;;;;;5074783;28;20387;-49
2021/10/09 16:03:40;;;;;;;11.90;9.97;;;;;;;;;;5074545;28;20406;-48
2021/10/09 16:06:06;;;;;;;14.87;10.13;;;;;;;;;;5074585;28;20414;-49
2021/10/09 16:08:33;;;;;;;13.40;9.80;;;;;;;;;;5074428;28;20424;-48
2021/10/09 16:10:59;;;;;;;14.73;9.80;;;;;;;;;;5074571;28;20385;-48
2021/10/09 16:13:28;;;;;;;13.73;10.20;;;;;;;;;;5074301;28;20453;-48
2021/10/09 16:15:54;;;;;;;14.17;9.43;;;;;;;;;;5074391;28;20398;-48
2021/10/09 16:18:20;;;;;;;11.93;9.10;;;;;;;;;;5074255;28;20876;-48
2021/10/09 16:20:46;;;;;;;11.30;10.00;;;;;;;;;;5074377;28;20401;-48
2021/10/09 16:23:12;;;;;;;13.50;10.73;;;;;;;;;;5074067;28;20384;-48
2021/10/09 16:25:38;;;;;;;17.40;10.23;;;;;;;;;;5074177;28;20382;-48
2021/10/09 16:28:04;;;;;;;12.10;8.97;;;;;;;;;;5074064;28;20433;-48
2021/10/09 16:30:30;;;;;;;13.23;10.10;;;;;;;;;;5074153;28;20727;-48
2021/10/09 16:32:56;;;;;;;20.90;10.30;;;;;;;;;;5074112;28;20973;-49
2021/10/09 16:35:21;;;;;;;16.70;10.10;;;;;;;;;;5074411;28;20748;-49
2021/10/09 16:37:48;;;;;;;18.10;9.20;;;;;;;;;;5073781;28;20487;-48
2021/10/09 16:40:14;;;;;;;14.80;9.70;;;;;;;;;;5074107;28;20399;-48
2021/10/09 16:42:39;;;;;;;12.83;10.13;;;;;;;;;;5073692;28;20379;-48
2021/10/09 16:45:06;;;;;;;14.10;9.53;;;;;;;;;;5073807;28;20394;-49
2021/10/09 16:47:32;;;;;;;11.93;9.33;;;;;;;;;;5073701;28;20446;-48
2021/10/09 16:49:58;;;;;;;13.00;8.63;;;;;;;;;;5073799;28;20372;-48
2021/10/09 16:52:24;;;;;;;20.23;9.57;;;;;;;;;;5072518;28;20361;-49
2021/10/09 16:54:49;;;;;;;18.10;9.10;;;;;;;;;;5073758;28;20400;-48
2021/10/09 16:57:17;;;;;;;14.00;9.00;;;;;;;;;;5073701;28;20485;-48
2021/10/09 16:59:43;;;;;;;11.17;8.63;;;;;;;;;;5073571;28;20969;-49
2021/10/09 17:02:09;;;;;;;19.57;9.70;;;;;;;;;;5073419;28;20388;-48
2021/10/09 17:04:35;;;;;;;10.37;8.40;;;;;;;;;;5073466;28;20411;-49
2021/10/09 17:07:01;;;;;;;11.27;8.20;;;;;;;;;;5073358;28;20423;-48
2021/10/09 17:09:27;;;;;;;14.30;9.03;;;;;;;;;;5073312;28;20412;-48